Notice: A non well formed numeric value encountered in /mnt/web301/a1/70/5400070/htdocs/weather28/wsFunctions.php on line 312 Warning: A non-numeric value encountered in /mnt/web301/a1/70/5400070/htdocs/weather28/wsFunctions.php on line 312 Warning: A non-numeric value encountered in /mnt/web301/a1/70/5400070/htdocs/weather28/wsFunctions.php on line 312 Warning: A non-numeric value encountered in /mnt/web301/a1/70/5400070/htdocs/weather28/scriptsWL/tagsWL.php on line 167 Warning: A non-numeric value encountered in /mnt/web301/a1/70/5400070/htdocs/weather28/scriptsWL/tagsWL.php on line 168 Warning: A non-numeric value encountered in /mnt/web301/a1/70/5400070/htdocs/weather28/wsFunctions.php on line 267 Warning: A non-numeric value encountered in /mnt/web301/a1/70/5400070/htdocs/weather28/wsFunctions.php on line 267 Warning: A non-numeric value encountered in /mnt/web301/a1/70/5400070/htdocs/weather28/wsFunctions.php on line 267 Warning: A non-numeric value encountered in /mnt/web301/a1/70/5400070/htdocs/weather28/wsFunctions.php on line 267 Warning: A non-numeric value encountered in /mnt/web301/a1/70/5400070/htdocs/weather28/scriptsWL/tagsWL.php on line 208 Warning: A non-numeric value encountered in /mnt/web301/a1/70/5400070/htdocs/weather28/scriptsWL/tagsWL.php on line 209 Warning: A non-numeric value encountered in /mnt/web301/a1/70/5400070/htdocs/weather28/scriptsWL/tagsWL.php on line 211 Warning: A non-numeric value encountered in /mnt/web301/a1/70/5400070/htdocs/weather28/scriptsWL/tagsWL.php on line 213 Warning: A non-numeric value encountered in /mnt/web301/a1/70/5400070/htdocs/weather28/scriptsWL/tagsWL.php on line 214 Warning: A non-numeric value encountered in /mnt/web301/a1/70/5400070/htdocs/weather28/scriptsWL/tagsWL.php on line 216 Warning: A non-numeric value encountered in /mnt/web301/a1/70/5400070/htdocs/weather28/scriptsWL/tagsWL.php on line 219 Warning: A non-numeric value encountered in /mnt/web301/a1/70/5400070/htdocs/weather28/scriptsWL/tagsWL.php on line 221 Warning: A non-numeric value encountered in /mnt/web301/a1/70/5400070/htdocs/weather28/scriptsWL/tagsWL.php on line 223 Warning: A non-numeric value encountered in /mnt/web301/a1/70/5400070/htdocs/weather28/scriptsWL/tagsWL.php on line 224

Thunder radar more information blitzortung!


Rain radar more information rain snow radar


   Es ist keine erhoehte Aufmerksamkeit aufgrund des Wetters notwendig.   -   Es gibt keine Warnungen :-).

METAR-Meldungen aus der Umgebung

Warning: A non-numeric value encountered in /mnt/web301/a1/70/5400070/htdocs/weather28/metar/metarDisplay.php on line 166
   
EBBR - Brussels International Airport, Belgium
Entfernung von der Station bis: W 14 km
Aktualisierung: 29-09-2020 11:20
leicht bewölkt  
leicht bewölkt  
   Wind: WSW 9.3 km/h
Wind: WSW 9.3 km/h
Temperatur: 15°C
Taupunkt: 11°C
Luftfeuchte: 77%
Luftdruck: 1017 hPa
Bewölkt: leicht bewölkt
Sichtbarkeit: More than 10 km
Bewölkung: leicht bewölkt 2000 ft
EBBR 290920Z 25005KT 220V290 9999 FEW020 15/11 Q1017
EBBE - Beauvechain (Bevekom), Belgium
Entfernung von der Station bis: SSO 17 km
Aktualisierung: 29-09-2020 10:55
leicht bewölkt  
leicht bewölkt  
   Wind: WSW 9.3 km/h
Wind: WSW 9.3 km/h
Temperatur: 14°C
Taupunkt: 12°C
Luftfeuchte: 88%
Luftdruck: 1016 hPa
Bewölkt: leicht bewölkt
Sichtbarkeit: More than 10 km
Bewölkung: leicht bewölkt 7000 ft
EBBE 290855Z 24005KT 9999 FEW070 14/12 Q1016 BLU BLU
EBDT - Schaffen, Belgium
Entfernung von der Station bis: ONO 29 km
Aktualisierung: 29-09-2020 10:55
Teilweise bewölkt  
Teilweise bewölkt  
   Wind: WSW 7.4 km/h
Wind: WSW 7.4 km/h
Temperatur: 14°C
Taupunkt: 11°C
Luftfeuchte: 82%
Luftdruck: 1017 hPa
Bewölkt: Teilweise bewölkt
Sichtbarkeit: More than 10 km
Bewölkung: leicht bewölkt 8500 ft,
Teilweise bewölkt 16000 ft
EBDT 290855Z 25004KT 9999 FEW085 SCT160 14/11 Q1017 BLU BLU
EBAW - Antwerp/Deurne, Belgium
Entfernung von der Station bis: NNW 38 km
Aktualisierung: 29-09-2020 11:20
Klar  
Klar  
   Wind: SSW 9.3 km/h
Wind: SSW 9.3 km/h
Temperatur: 16°C
Taupunkt: 10°C
Luftfeuchte: 68%
Luftdruck: 1016 hPa
Sichtbarkeit: More than 10 km
Bewölkung: Klar
EBAW 290920Z 21005KT 190V250 CAVOK 16/10 Q1016 NOSIG
EBCI - Charleroi/Gosselies, Belgium
Entfernung von der Station bis: SSW 51 km
Aktualisierung: 29-09-2020 11:20
Stark bewölkt  
Stark bewölkt  
   Wind: WSW 14.8 km/h
Wind: WSW 14.8 km/h
Temperatur: 13°C
Taupunkt: 11°C
Luftfeuchte: 88%
Luftdruck: 1017 hPa
Bewölkt: Stark bewölkt
Sichtbarkeit: 6 km
Bewölkung: Teilweise bewölkt 700 ft,
Stark bewölkt 1200 ft
EBCI 290920Z 25008KT 6000 SCT007 BKN012 13/11 Q1017 TEMPO 3000 BR BKN006
EBLG - Bierset/Liege, Belgium
Entfernung von der Station bis: OSO 60 km
Aktualisierung: 29-09-2020 11:20
Teilweise bewölkt  
Teilweise bewölkt  
   Wind: SW 13 km/h
Wind: SW 13 km/h
Temperatur: 13°C
Taupunkt: 11°C
Luftfeuchte: 88%
Luftdruck: 1017 hPa
Bewölkt: Teilweise bewölkt
Sichtbarkeit: More than 10 km
Bewölkung: Teilweise bewölkt 4800 ft
EBLG 290920Z 23007KT 9999 SCT048 13/11 Q1017 NOSIG

Script entwickelt von  Saratoga-weather.org Angepasst für das Template von  Weerstation Leuven